Time;durP1;ratioP1;P1;durP2;ratioP2;P2;SDS_P1;SDS_P2;PMS_P1;PMS_P2;Temp;Humidity;BMP_temperature;BMP_pressure;BME280_temperature;BME280_humidity;BME280_pressure;Samples;Min_cycle;Max_cycle;Signal;HPM_P1;HPM_P2
2023/07/25 00:04:55;;;;;;;12.30;7.30;;;;;;;20.63;64.15;98313.71;219332;1256;140954;-70
2023/07/25 00:09:59;;;;;;;63.30;13.40;;;;;;;20.53;64.47;98320.89;218568;1254;140285;-71
2023/07/25 00:15:05;;;;;;;16.70;9.10;;;;;;;20.45;64.85;98323.17;218084;1254;140884;-71
2023/07/25 00:20:10;;;;;;;13.90;9.40;;;;;;;20.37;65.13;98321.42;219174;1254;141008;-70
2023/07/25 00:25:15;;;;;;;16.20;9.60;;;;;;;20.32;65.49;98325.21;218132;1254;535869;-70
2023/07/25 00:30:20;;;;;;;9.90;7.60;;;;;;;20.30;65.70;98333.41;219496;1254;140614;-69
2023/07/25 00:35:24;;;;;;;10.80;7.50;;;;;;;20.30;65.82;98329.79;220863;1254;141184;-67
2023/07/25 00:40:29;;;;;;;8.50;7.00;;;;;;;20.32;65.93;98326.36;219180;1257;140179;-67
2023/07/25 00:45:34;;;;;;;11.00;8.30;;;;;;;20.30;65.79;98322.45;220385;1254;140374;-67
2023/07/25 00:50:37;;;;;;;10.60;8.20;;;;;;;20.28;65.83;98318.73;218584;1254;140323;-67
2023/07/25 00:55:42;;;;;;;12.30;8.10;;;;;;;20.26;65.94;98304.50;219273;1254;139859;-68
2023/07/25 01:00:46;;;;;;;12.00;7.60;;;;;;;20.24;65.85;98298.26;218021;1254;140000;-70
2023/07/25 01:05:51;;;;;;;11.50;7.60;;;;;;;20.22;65.77;98301.80;219061;1254;140986;-69
2023/07/25 01:10:56;;;;;;;11.40;7.50;;;;;;;20.21;65.72;98310.05;218177;1258;140676;-68
2023/07/25 01:16:01;;;;;;;12.90;7.50;;;;;;;20.16;65.78;98325.59;218901;1254;140821;-70
2023/07/25 01:21:08;;;;;;;13.10;7.40;;;;;;;20.09;65.79;98321.98;218078;1254;140917;-69
2023/07/25 01:26:13;;;;;;;9.30;7.00;;;;;;;20.04;65.86;98316.94;218655;1254;141336;-68
2023/07/25 01:31:18;;;;;;;12.70;7.50;;;;;;;19.99;65.93;98326.10;218262;1254;140188;-69
2023/07/25 01:36:23;;;;;;;7.60;6.80;;;;;;;19.92;66.08;98327.39;219039;1254;140399;-69
2023/07/25 01:41:28;;;;;;;12.40;7.60;;;;;;;19.89;66.15;98333.15;218656;1254;139907;-68
2023/07/25 01:46:33;;;;;;;8.90;7.30;;;;;;;19.84;66.21;98339.46;218593;1254;140764;-68
2023/07/25 01:51:38;;;;;;;11.30;8.40;;;;;;;19.82;66.41;98344.29;218508;1254;142822;-67
2023/07/25 01:56:43;;;;;;;12.40;8.30;;;;;;;19.79;66.55;98342.01;218436;1254;140778;-67
2023/07/25 02:01:52;;;;;;;8.20;7.30;;;;;;;19.74;66.50;98346.67;217993;1259;141492;-68
2023/07/25 02:06:57;;;;;;;16.10;7.50;;;;;;;19.67;66.67;98351.80;219014;1254;141022;-69
2023/07/25 02:12:01;;;;;;;11.40;6.80;;;;;;;19.62;66.76;98349.42;218397;1254;141083;-68
2023/07/25 02:17:06;;;;;;;12.20;7.30;;;;;;;19.57;66.79;98350.08;218713;1256;140768;-68
2023/07/25 02:22:11;;;;;;;14.40;6.30;;;;;;;19.53;66.83;98355.73;219011;1254;141204;-68
2023/07/25 02:27:16;;;;;;;9.30;6.70;;;;;;;19.47;67.05;98349.85;220332;1257;140133;-69
2023/07/25 02:32:20;;;;;;;13.10;7.70;;;;;;;19.44;67.06;98355.90;220660;1254;141230;-69
2023/07/25 02:37:25;;;;;;;14.30;8.20;;;;;;;19.41;67.01;98367.04;219620;1254;140354;-69
2023/07/25 02:42:29;;;;;;;8.60;6.50;;;;;;;19.40;67.02;98362.77;219448;1254;139936;-68
2023/07/25 02:47:33;;;;;;;10.00;6.10;;;;;;;19.39;66.95;98366.34;220090;1254;141369;-68
2023/07/25 02:52:38;;;;;;;7.40;5.40;;;;;;;19.39;66.72;98379.41;220862;1254;141648;-68
2023/07/25 02:57:42;;;;;;;10.20;5.80;;;;;;;19.37;66.56;98393.21;218241;1255;140255;-66
2023/07/25 03:02:48;;;;;;;10.90;6.60;;;;;;;19.33;66.51;98393.73;218192;1259;141009;-68
2023/07/25 03:07:53;;;;;;;16.00;6.20;;;;;;;19.29;66.39;98393.88;218830;1256;140967;-67
2023/07/25 03:12:58;;;;;;;9.70;6.60;;;;;;;19.25;66.34;98392.86;218246;1254;140779;-68
2023/07/25 03:18:04;;;;;;;10.00;6.60;;;;;;;19.23;66.47;98396.21;218874;1254;139628;-67
2023/07/25 03:23:08;;;;;;;12.00;6.00;;;;;;;19.20;66.29;98398.85;219330;1254;141117;-68
2023/07/25 03:28:13;;;;;;;7.90;5.40;;;;;;;19.14;66.22;98410.77;218108;1254;140186;-66
2023/07/25 03:33:17;;;;;;;7.50;5.30;;;;;;;19.17;65.97;98414.18;218731;1256;139997;-67
2023/07/25 03:38:21;;;;;;;11.10;5.50;;;;;;;19.22;65.86;98409.98;218284;1254;140213;-67
2023/07/25 03:43:26;;;;;;;7.90;4.90;;;;;;;19.30;65.70;98412.66;218078;1254;141142;-67
2023/07/25 03:48:32;;;;;;;6.20;4.00;;;;;;;19.42;65.49;98419.67;218350;1258;140259;-68
2023/07/25 03:53:36;;;;;;;12.40;4.60;;;;;;;19.54;65.08;98424.36;219109;1254;152542;-67
2023/07/25 03:58:40;;;;;;;16.70;5.90;;;;;;;19.62;64.88;98436.23;219085;1255;140454;-68
2023/07/25 04:03:44;;;;;;;13.40;4.70;;;;;;;19.72;64.19;98437.76;217806;1256;140312;-68
2023/07/25 04:08:49;;;;;;;8.00;2.90;;;;;;;19.88;63.78;98435.27;219397;1255;140525;-66
2023/07/25 04:13:53;;;;;;;2.90;2.70;;;;;;;20.02;63.39;98445.85;219185;1256;140093;-67
2023/07/25 04:18:59;;;;;;;3.20;2.90;;;;;;;20.19;62.99;98442.94;217888;1256;142057;-71
2023/07/25 04:24:05;;;;;;;4.40;2.50;;;;;;;20.31;62.42;98438.69;218165;1254;139992;-72
2023/07/25 04:29:09;;;;;;;3.50;2.40;;;;;;;20.36;62.03;98447.70;218483;1255;141179;-68
2023/07/25 04:34:13;;;;;;;3.10;2.20;;;;;;;20.38;61.72;98454.14;218693;1255;139873;-81
2023/07/25 04:39:18;;;;;;;3.60;2.40;;;;;;;20.38;61.48;98455.35;219656;1255;140516;-70
2023/07/25 04:44:23;;;;;;;3.50;2.10;;;;;;;20.33;61.26;98448.67;218876;1256;140183;-75
2023/07/25 04:49:28;;;;;;;3.40;2.40;;;;;;;20.22;61.18;98444.46;219006;1255;139594;-68
2023/07/25 04:54:33;;;;;;;7.00;2.20;;;;;;;20.38;60.98;98450.02;219552;1256;141148;-66
2023/07/25 04:59:40;;;;;;;4.00;2.30;;;;;;;20.86;60.59;98447.11;219662;1259;140608;-65
2023/07/25 05:04:47;;;;;;;2.80;2.10;;;;;;;21.27;59.98;98450.34;218946;1256;140089;-68
2023/07/25 05:09:51;;;;;;;5.30;2.60;;;;;;;21.48;59.47;98457.86;218936;1256;141277;-66
2023/07/25 05:14:57;;;;;;;2.90;2.60;;;;;;;21.47;59.06;98465.41;218717;1257;140651;-67
2023/07/25 05:20:03;;;;;;;4.10;1.90;;;;;;;21.29;58.80;98467.48;217706;1255;139340;-65
2023/07/25 05:25:07;;;;;;;1.70;1.60;;;;;;;23.41;56.44;98473.05;218206;1255;141183;-67
2023/07/25 05:30:12;;;;;;;2.70;1.90;;;;;;;27.65;52.44;98468.04;218048;1259;139973;-66
2023/07/25 05:35:17;;;;;;;5.10;1.80;;;;;;;31.26;48.30;98479.05;218324;1254;139200;-70
2023/07/25 05:40:22;;;;;;;2.30;1.60;;;;;;;33.90;43.64;98486.04;217962;1259;139306;-69
2023/07/25 05:45:26;;;;;;;;;;;;;;;35.73;40.16;98488.66;218592;1254;139140;-69
2023/07/25 05:50:31;;;;;;;2.40;1.40;;;;;;;37.29;37.38;98484.13;218759;1254;126111;-69
2023/07/25 05:55:35;;;;;;;2.60;1.10;;;;;;;38.83;34.67;98502.86;219575;1256;139104;-69
2023/07/25 06:00:40;;;;;;;1.10;0.80;;;;;;;39.87;32.34;98498.33;218377;1256;139351;-68
2023/07/25 06:05:45;;;;;;;2.20;1.30;;;;;;;39.90;31.29;98482.08;219078;1259;139719;-68
2023/07/25 06:10:51;;;;;;;0.40;0.40;;;;;;;39.54;30.62;98475.52;218888;1256;139904;-67
2023/07/25 06:15:55;;;;;;;0.80;0.80;;;;;;;39.99;28.97;98495.60;219119;1256;140290;-69
2023/07/25 06:21:00;;;;;;;1.00;0.90;;;;;;;39.81;28.83;98497.86;217942;1260;139714;-69
2023/07/25 06:26:05;;;;;;;1.20;1.10;;;;;;;40.17;28.04;98502.81;220014;1257;140770;-71
2023/07/25 06:31:09;;;;;;;0.80;0.80;;;;;;;38.72;28.19;98507.16;218983;1255;140739;-71
2023/07/25 06:36:15;;;;;;;3.00;0.80;;;;;;;38.03;28.09;98506.85;219788;1256;139609;-70
2023/07/25 06:41:20;;;;;;;1.10;1.00;;;;;;;36.26;29.29;98500.56;219475;1256;140723;-70
2023/07/25 06:46:24;;;;;;;1.00;0.80;;;;;;;35.25;30.05;98498.16;219525;1256;140921;-70
2023/07/25 06:51:30;;;;;;;0.60;0.60;;;;;;;33.90;30.71;98508.03;218370;1257;139578;-68
2023/07/25 06:56:36;;;;;;;1.70;0.90;;;;;;;33.11;31.59;98518.12;219139;1256;139868;-70
2023/07/25 07:01:41;;;;;;;3.60;1.30;;;;;;;32.79;32.13;98512.68;218399;1256;140171;-68
2023/07/25 07:06:46;;;;;;;2.90;1.50;;;;;;;32.66;32.42;98518.11;218360;1255;139184;-68
2023/07/25 07:11:51;;;;;;;1.30;1.00;;;;;;;33.61;32.10;98512.98;218724;1256;139460;-68
2023/07/25 07:16:57;;;;;;;1.20;1.20;;;;;;;34.79;31.25;98504.52;217978;1256;139166;-68
2023/07/25 07:22:01;;;;;;;2.10;0.90;;;;;;;36.03;30.73;98502.26;219011;1254;140076;-67
2023/07/25 07:27:06;;;;;;;1.00;1.00;;;;;;;36.42;29.75;98501.44;218577;1259;139545;-67
2023/07/25 07:32:12;;;;;;;0.90;0.80;;;;;;;35.77;29.64;98514.34;218809;1257;139920;-66
2023/07/25 07:37:16;;;;;;;0.90;0.90;;;;;;;35.50;29.84;98522.88;218814;1254;139825;-69
2023/07/25 07:42:20;;;;;;;1.10;1.00;;;;;;;35.34;29.93;98522.45;218260;1257;141912;-68
2023/07/25 07:47:25;;;;;;;0.90;0.80;;;;;;;34.87;29.93;98531.66;218353;1259;138733;-69
2023/07/25 07:52:30;;;;;;;1.40;1.20;;;;;;;34.60;30.65;98526.41;219093;1257;139430;-69
2023/07/25 07:57:47;;;;;;;12.60;1.90;;;;;;;34.09;30.11;98533.24;218696;1256;140045;-71
2023/07/25 08:02:52;;;;;;;1.40;1.00;;;;;;;33.88;30.50;98526.41;217962;1256;139879;-71
2023/07/25 08:07:58;;;;;;;5.40;1.50;;;;;;;33.46;30.51;98526.02;217966;1258;139186;-69
2023/07/25 08:13:03;;;;;;;1.20;1.10;;;;;;;32.96;30.92;98503.58;219018;1256;139356;-71
2023/07/25 08:18:07;;;;;;;2.50;1.90;;;;;;;32.94;31.32;98489.25;219529;1256;139554;-71
2023/07/25 08:23:11;;;;;;;2.40;1.40;;;;;;;32.82;30.89;98471.96;220535;1255;139432;-71
2023/07/25 08:28:15;;;;;;;5.30;2.10;;;;;;;32.60;30.95;98462.92;220728;1256;140189;-71
2023/07/25 08:33:22;;;;;;;2.00;1.50;;;;;;;32.43;30.89;98472.17;219566;1256;139961;-68
2023/07/25 08:38:25;;;;;;;5.80;1.50;;;;;;;32.13;31.20;98483.19;219616;1256;140717;-72
2023/07/25 08:43:31;;;;;;;1.40;1.30;;;;;;;31.78;31.63;98495.54;218569;1256;139702;-68
2023/07/25 08:48:38;;;;;;;1.90;1.60;;;;;;;31.59;32.26;98504.55;218505;1259;139097;-68
2023/07/25 08:53:52;;;;;;;1.70;1.60;;;;;;;31.46;32.26;98520.48;218247;1257;139346;-68
2023/07/25 08:58:57;;;;;;;1.90;1.80;;;;;;;31.53;32.70;98519.55;218259;1256;141160;-68
2023/07/25 09:04:03;;;;;;;2.80;1.60;;;;;;;31.01;32.51;98517.02;217784;1255;139069;-68
2023/07/25 09:09:08;;;;;;;2.10;2.00;;;;;;;30.88;32.98;98511.01;218593;1257;139230;-69
2023/07/25 09:14:12;;;;;;;2.40;1.90;;;;;;;31.00;33.20;98506.94;218337;1257;140355;-69
2023/07/25 09:19:19;;;;;;;2.00;1.80;;;;;;;30.86;33.04;98504.02;218658;1256;139993;-68
2023/07/25 09:24:35;;;;;;;9.90;2.10;;;;;;;30.41;33.23;98499.59;218220;1257;140145;-70
2023/07/25 09:29:39;;;;;;;2.60;1.60;;;;;;;30.56;33.75;98486.36;218774;1258;140166;-69
2023/07/25 09:34:45;;;;;;;1.60;1.50;;;;;;;30.04;33.75;98491.63;218289;1257;139695;-69
2023/07/25 09:39:50;;;;;;;2.50;1.90;;;;;;;29.71;34.73;98477.11;218657;1257;139352;-71
2023/07/25 09:44:56;;;;;;;3.50;1.40;;;;;;;29.91;34.76;98476.64;218749;1256;140414;-68
2023/07/25 09:50:07;;;;;;;1.60;1.30;;;;;;;29.89;34.31;98485.20;218713;1257;138963;-69
2023/07/25 09:55:11;;;;;;;1.30;1.30;;;;;;;30.14;34.47;98481.19;218310;1256;139401;-69
2023/07/25 10:00:16;;;;;;;3.60;2.10;;;;;;;30.01;34.18;98489.13;219172;1256;139097;-70
2023/07/25 10:05:21;;;;;;;1.70;1.10;;;;;;;29.75;34.53;98496.81;220317;1256;139510;-72
2023/07/25 10:10:28;;;;;;;1.80;1.60;;;;;;;29.86;35.10;98488.57;218014;1256;139532;-70
2023/07/25 10:15:41;;;;;;;;;;;;;;;29.33;34.81;98479.66;220569;1255;139969;-72
2023/07/25 10:20:50;;;;;;;1.60;1.50;;;;;;;29.12;35.30;98474.05;220535;1257;125849;-75
2023/07/25 10:26:13;;;;;;;5.70;1.60;;;;;;;29.44;35.14;98461.25;218335;1256;139446;-71
2023/07/25 10:31:30;;;;;;;1.50;1.40;;;;;;;29.19;35.38;98468.56;220483;1257;139883;-72
2023/07/25 10:36:37;;;;;;;3.60;1.60;;;;;;;29.24;35.11;98470.45;217940;1259;139569;-69
2023/07/25 10:41:40;;;;;;;2.30;1.60;;;;;;;29.76;35.75;98486.14;218392;1257;140316;-69
2023/07/25 10:46:44;;;;;;;3.60;2.00;;;;;;;30.13;34.88;98485.12;219235;1257;139463;-69
2023/07/25 10:51:56;;;;;;;2.40;1.60;;;;;;;29.88;34.06;98483.39;218377;1257;140590;-78
2023/07/25 10:57:14;;;;;;;2.90;1.40;;;;;;;29.71;34.60;98483.09;218115;1257;139655;-70
2023/07/25 11:02:43;;;;;;;1.80;1.70;;;;;;;29.56;34.38;98480.25;219227;1259;152071;-73
2023/07/25 11:07:55;;;;;;;1.90;1.80;;;;;;;29.56;34.43;98475.80;217962;1256;139065;-77
2023/07/25 11:13:08;;;;;;;1.70;1.50;;;;;;;29.65;34.00;98467.32;218260;1256;139713;-73
2023/07/25 11:18:13;;;;;;;3.00;1.80;;;;;;;29.77;34.14;98464.95;217852;1259;139082;-70
2023/07/25 11:23:21;;;;;;;1.70;1.60;;;;;;;29.82;33.98;98456.40;218931;1259;139779;-68
2023/07/25 11:28:26;;;;;;;5.30;1.80;;;;;;;29.72;33.61;98460.09;217839;1259;139229;-66
2023/07/25 11:33:37;;;;;;;1.60;1.50;;;;;;;29.48;33.58;98459.54;218201;1257;139188;-66
2023/07/25 11:38:42;;;;;;;4.50;1.80;;;;;;;29.19;33.54;98451.64;218361;1256;140150;-67
2023/07/25 11:43:46;;;;;;;2.60;1.90;;;;;;;29.16;34.01;98446.85;218467;1257;139467;-68
2023/07/25 11:48:51;;;;;;;1.80;1.70;;;;;;;29.06;33.89;98435.61;218565;1259;139338;-67
2023/07/25 11:53:58;;;;;;;1.60;1.50;;;;;;;28.98;34.35;98435.85;217664;1257;140190;-67
2023/07/25 11:59:03;;;;;;;2.30;1.70;;;;;;;28.73;34.18;98436.14;218613;1257;139845;-69
2023/07/25 12:04:15;;;;;;;3.10;1.80;;;;;;;28.51;34.53;98446.06;219240;1257;139901;-67
2023/07/25 12:09:28;;;;;;;1.80;1.70;;;;;;;28.43;34.63;98438.75;219634;1257;139890;-73
2023/07/25 12:14:33;;;;;;;1.60;1.40;;;;;;;28.25;34.59;98430.58;218476;1259;139656;-72
2023/07/25 12:19:36;;;;;;;1.90;1.80;;;;;;;28.18;34.77;98421.70;219201;1256;139473;-74
2023/07/25 12:24:41;;;;;;;1.80;1.70;;;;;;;28.16;34.91;98420.26;218141;1257;379142;-72
2023/07/25 12:29:45;;;;;;;1.70;1.60;;;;;;;28.06;35.04;98427.19;220044;1257;139720;-71
2023/07/25 12:34:49;;;;;;;2.40;2.20;;;;;;;28.02;35.29;98431.70;219686;1259;139479;-76
2023/07/25 12:39:53;;;;;;;1.80;1.70;;;;;;;27.88;35.42;98413.68;218134;1257;140297;-76
2023/07/25 12:45:01;;;;;;;1.90;1.80;;;;;;;27.76;35.63;98414.79;218707;1259;140125;-77
2023/07/25 12:50:05;;;;;;;3.40;2.10;;;;;;;27.60;35.81;98415.35;219222;1257;139006;-74
2023/07/25 12:55:10;;;;;;;3.60;2.00;;;;;;;27.50;36.11;98419.19;218202;1256;139464;-76
2023/07/25 13:00:16;;;;;;;2.10;1.90;;;;;;;27.49;36.19;98418.48;219061;1257;140030;-73
2023/07/25 13:05:20;;;;;;;;;;;;;;;27.56;36.24;98408.27;218081;1259;223833;-74
2023/07/25 13:10:24;;;;;;;5.00;2.40;;;;;;;27.54;36.36;98402.15;218389;1259;126083;-74
2023/07/25 13:15:29;;;;;;;2.00;1.80;;;;;;;27.53;36.36;98402.14;218648;1259;140496;-73
2023/07/25 13:20:34;;;;;;;1.90;1.80;;;;;;;27.37;36.16;98402.34;218156;1257;246504;-70
2023/07/25 13:25:39;;;;;;;2.60;1.70;;;;;;;27.15;36.34;98398.31;219287;1258;140650;-70
2023/07/25 13:30:45;;;;;;;1.80;1.60;;;;;;;26.88;36.65;98390.45;218361;1257;141673;-78
2023/07/25 13:35:50;;;;;;;1.50;1.40;;;;;;;26.75;36.96;98383.35;219483;1259;140020;-75
2023/07/25 13:40:55;;;;;;;2.10;1.90;;;;;;;26.66;37.10;98378.73;218132;1259;140185;-75
2023/07/25 13:46:00;;;;;;;2.10;1.90;;;;;;;26.61;37.31;98380.63;218140;1259;141177;-71
2023/07/25 13:51:08;;;;;;;2.00;1.80;;;;;;;26.48;37.71;98384.85;218623;1256;139828;-74
2023/07/25 13:56:13;;;;;;;2.00;1.90;;;;;;;26.40;37.89;98387.17;219988;1259;139654;-74
2023/07/25 14:01:17;;;;;;;4.80;2.40;;;;;;;26.33;38.03;98386.54;219218;1258;140691;-74
2023/07/25 14:06:21;;;;;;;2.80;2.10;;;;;;;26.29;38.24;98387.73;218327;1257;139413;-69
2023/07/25 14:11:27;;;;;;;2.80;2.60;;;;;;;26.17;38.74;98386.24;218879;1259;139697;-73
2023/07/25 14:16:33;;;;;;;2.80;2.50;;;;;;;26.07;38.97;98385.87;219863;1257;139022;-73
2023/07/25 14:21:43;;;;;;;5.80;2.30;;;;;;;25.95;38.98;98386.34;218147;1257;139785;-73
2023/07/25 14:26:46;;;;;;;2.80;2.60;;;;;;;25.83;39.53;98388.35;220125;1257;139519;-74
2023/07/25 14:31:50;;;;;;;3.00;2.40;;;;;;;25.70;39.74;98398.74;218512;1260;138800;-74
2023/07/25 14:36:53;;;;;;;6.40;2.60;;;;;;;25.55;40.12;98396.86;219135;1260;139991;-82
2023/07/25 14:41:56;;;;;;;4.70;2.80;;;;;;;25.43;40.39;98398.23;218746;1260;139688;-75
2023/07/25 14:47:00;;;;;;;3.00;2.50;;;;;;;25.28;40.56;98404.47;218057;1258;139055;-67
2023/07/25 14:52:07;;;;;;;4.20;2.10;;;;;;;25.05;40.67;98415.82;218222;1260;139238;-65
2023/07/25 14:57:11;;;;;;;2.70;2.50;;;;;;;24.81;41.10;98422.36;217778;1257;139718;-66
2023/07/25 15:02:15;;;;;;;2.70;2.50;;;;;;;24.61;41.41;98431.71;218579;1260;140901;-65
2023/07/25 15:07:21;;;;;;;2.70;2.50;;;;;;;24.43;41.62;98434.21;217885;1258;140213;-64
2023/07/25 15:12:25;;;;;;;2.80;2.30;;;;;;;24.27;41.73;98439.70;218004;1259;139843;-66
2023/07/25 15:17:30;;;;;;;2.80;2.60;;;;;;;24.07;42.08;98433.21;217920;1257;139666;-65
2023/07/25 15:22:34;;;;;;;3.00;2.50;;;;;;;23.83;42.03;98428.98;217740;1260;140030;-69
2023/07/25 15:27:38;;;;;;;2.80;2.60;;;;;;;23.59;42.38;98428.42;218260;1254;139393;-82
2023/07/25 15:32:41;;;;;;;2.00;1.90;;;;;;;23.41;42.53;98425.71;218067;1259;139165;-79
2023/07/25 15:37:47;;;;;;;2.60;2.40;;;;;;;23.25;42.94;98430.27;219254;1257;139729;-66
2023/07/25 15:42:52;;;;;;;1.70;1.60;;;;;;;23.11;43.17;98426.73;218440;1257;139203;-70
2023/07/25 15:47:57;;;;;;;8.10;2.40;;;;;;;22.97;43.29;98418.84;218235;1256;139334;-68
2023/07/25 15:53:02;;;;;;;8.80;3.10;;;;;;;22.84;43.57;98417.86;218400;1259;139661;-68
2023/07/25 15:58:07;;;;;;;2.60;2.40;;;;;;;22.75;43.78;98419.85;219339;1256;139394;-66
2023/07/25 16:03:12;;;;;;;2.60;2.20;;;;;;;22.68;44.04;98419.57;220291;1257;139547;-66
2023/07/25 16:08:16;;;;;;;3.00;2.60;;;;;;;22.60;44.27;98416.18;217724;1260;140713;-68
2023/07/25 16:13:20;;;;;;;3.00;2.10;;;;;;;22.51;44.31;98417.39;219847;1256;139253;-68
2023/07/25 16:18:25;;;;;;;9.60;2.80;;;;;;;22.42;44.65;98421.39;219449;1257;139360;-67
2023/07/25 16:23:28;;;;;;;3.80;2.60;;;;;;;22.33;44.82;98422.47;218615;1257;139721;-66
2023/07/25 16:28:33;;;;;;;2.60;2.40;;;;;;;22.23;44.81;98422.09;218979;1257;140219;-65
2023/07/25 16:33:37;;;;;;;3.80;2.70;;;;;;;22.16;45.04;98420.02;218732;1254;139503;-66
2023/07/25 16:38:42;;;;;;;2.70;2.40;;;;;;;22.09;45.25;98417.41;218650;1257;139043;-67
2023/07/25 16:43:48;;;;;;;3.90;2.20;;;;;;;22.01;45.41;98419.34;219318;1257;139037;-70
2023/07/25 16:48:52;;;;;;;2.80;2.30;;;;;;;21.93;45.67;98414.81;218243;1260;139960;-66
2023/07/25 16:53:56;;;;;;;3.10;1.90;;;;;;;21.90;45.91;98423.16;218696;1258;139547;-71
2023/07/25 16:59:01;;;;;;;3.20;2.50;;;;;;;21.88;46.28;98426.13;218570;1257;140293;-74
2023/07/25 17:04:06;;;;;;;2.40;2.10;;;;;;;21.92;46.47;98431.05;218812;1257;139227;-67
2023/07/25 17:09:10;;;;;;;3.20;2.70;;;;;;;21.99;46.55;98442.38;218548;1257;139978;-67
2023/07/25 17:14:14;;;;;;;95.20;7.90;;;;;;;22.06;46.63;98446.70;218318;1256;139869;-66
2023/07/25 17:19:19;;;;;;;2.80;2.60;;;;;;;22.05;46.50;98436.59;218677;1257;140277;-68
2023/07/25 17:24:24;;;;;;;6.70;3.10;;;;;;;22.07;46.56;98440.74;218337;1257;139558;-68
2023/07/25 17:29:29;;;;;;;3.80;2.80;;;;;;;22.07;46.66;98448.36;218781;1259;139361;-69
2023/07/25 17:34:34;;;;;;;3.50;2.90;;;;;;;22.10;46.57;98452.34;219023;1257;141388;-69
2023/07/25 17:39:39;;;;;;;3.20;2.30;;;;;;;22.11;46.79;98453.68;218544;1257;247723;-67
2023/07/25 17:44:43;;;;;;;4.30;2.70;;;;;;;22.10;46.85;98453.57;218898;1257;139696;-65
2023/07/25 17:49:47;;;;;;;2.80;2.60;;;;;;;22.03;46.80;98453.77;220274;1257;139221;-68
2023/07/25 17:54:53;;;;;;;2.60;2.20;;;;;;;21.88;46.89;98453.50;219162;1257;139789;-68
2023/07/25 17:59:57;;;;;;;3.60;2.30;;;;;;;21.72;47.04;98460.44;220681;1257;140458;-69
2023/07/25 18:05:01;;;;;;;4.40;2.60;;;;;;;21.59;47.25;98467.53;220442;1257;140835;-69
2023/07/25 18:10:06;;;;;;;2.90;2.50;;;;;;;21.48;47.66;98468.33;220200;1256;139361;-69
2023/07/25 18:15:10;;;;;;;4.10;2.80;;;;;;;21.36;47.81;98467.98;220519;1256;139939;-68
2023/07/25 18:20:14;;;;;;;2.60;2.40;;;;;;;21.20;48.12;98465.66;218832;1257;140426;-67
2023/07/25 18:25:18;;;;;;;3.60;3.00;;;;;;;21.01;48.46;98462.77;218648;1256;140277;-68
2023/07/25 18:30:22;;;;;;;4.20;2.70;;;;;;;20.83;48.90;98464.50;217902;1257;138990;-68
2023/07/25 18:35:26;;;;;;;2.50;2.20;;;;;;;20.63;49.22;98456.42;218186;1256;139923;-66
2023/07/25 18:40:35;;;;;;;3.40;2.70;;;;;;;20.39;49.87;98459.27;218557;1257;139408;-68
2023/07/25 18:45:43;;;;;;;3.30;2.90;;;;;;;20.15;50.19;98449.43;217603;1259;139407;-68
2023/07/25 18:50:52;;;;;;;2.80;2.60;;;;;;;19.88;50.59;98452.20;218240;1257;139009;-68
2023/07/25 18:55:56;;;;;;;3.10;2.90;;;;;;;19.61;51.05;98457.58;218819;1257;139120;-69
2023/07/25 19:01:00;;;;;;;2.90;2.70;;;;;;;19.37;51.84;98459.98;219352;1256;139230;-68
2023/07/25 19:06:04;;;;;;;3.70;2.90;;;;;;;19.12;52.56;98463.13;218844;1257;139063;-69
2023/07/25 19:11:08;;;;;;;3.10;2.70;;;;;;;18.85;52.70;98466.10;218450;1259;139117;-68
2023/07/25 19:16:12;;;;;;;5.50;3.30;;;;;;;18.46;53.09;98471.46;218917;1254;139215;-68
2023/07/25 19:21:17;;;;;;;8.20;3.30;;;;;;;18.07;54.06;98476.58;218682;1254;140444;-68
2023/07/25 19:26:22;;;;;;;9.00;2.70;;;;;;;17.80;54.81;98487.73;219388;1254;140051;-66
2023/07/25 19:31:26;;;;;;;3.50;2.60;;;;;;;17.66;55.45;98488.70;219023;1254;139232;-68
2023/07/25 19:36:30;;;;;;;3.50;2.80;;;;;;;17.57;56.04;98488.21;218292;1257;139614;-68
2023/07/25 19:41:35;;;;;;;5.20;3.00;;;;;;;17.46;56.40;98487.05;218159;1255;140786;-68
2023/07/25 19:46:39;;;;;;;3.80;3.20;;;;;;;17.29;56.53;98490.11;218755;1257;139436;-68
2023/07/25 19:51:44;;;;;;;4.10;2.50;;;;;;;16.98;56.56;98493.09;220863;1255;139788;-69
2023/07/25 19:56:49;;;;;;;4.60;3.00;;;;;;;16.60;57.26;98499.46;220733;1256;139773;-68
2023/07/25 20:01:54;;;;;;;5.60;2.60;;;;;;;16.34;57.76;98496.79;218806;1255;139254;-67
2023/07/25 20:06:58;;;;;;;4.90;3.40;;;;;;;16.18;58.34;98499.13;218697;1256;140126;-68
2023/07/25 20:12:04;;;;;;;4.50;3.00;;;;;;;15.99;58.83;98501.02;217919;1256;139839;-67
2023/07/25 20:17:08;;;;;;;4.30;3.10;;;;;;;15.74;59.03;98499.63;219647;1258;141786;-68
2023/07/25 20:22:12;;;;;;;5.30;2.90;;;;;;;15.53;59.61;98501.91;218358;1256;139556;-69
2023/07/25 20:27:16;;;;;;;3.40;3.10;;;;;;;15.38;60.12;98508.60;217998;1256;139716;-69
2023/07/25 20:32:20;;;;;;;4.60;3.10;;;;;;;15.22;60.70;98507.34;218425;1259;139727;-69
2023/07/25 20:37:24;;;;;;;6.70;3.10;;;;;;;15.10;60.87;98511.65;218460;1256;140955;-68
2023/07/25 20:42:29;;;;;;;4.70;2.80;;;;;;;14.98;61.14;98514.11;218330;1256;139886;-68
2023/07/25 20:47:34;;;;;;;3.00;2.80;;;;;;;14.78;61.07;98523.06;217983;1254;139946;-68
2023/07/25 20:52:39;;;;;;;4.70;3.10;;;;;;;14.52;61.48;98529.13;218414;1254;140000;-68
2023/07/25 20:57:44;;;;;;;13.10;3.20;;;;;;;14.32;61.99;98527.21;217980;1254;140477;-68
2023/07/25 21:02:49;;;;;;;3.60;3.30;;;;;;;14.23;62.61;98531.80;219247;1259;140535;-69
2023/07/25 21:07:54;;;;;;;5.20;3.50;;;;;;;14.11;62.59;98531.20;218104;1257;140388;-68
2023/07/25 21:12:58;;;;;;;3.90;3.50;;;;;;;14.04;63.21;98531.55;218064;1257;140172;-68
2023/07/25 21:18:03;;;;;;;4.80;3.10;;;;;;;14.05;63.41;98524.83;218261;1254;141044;-68
2023/07/25 21:23:22;;;;;;;3.40;3.00;;;;;;;13.89;63.41;98525.45;218784;1254;140744;-69
2023/07/25 21:28:26;;;;;;;3.80;3.20;;;;;;;13.66;63.57;98539.15;218740;1254;140952;-67
2023/07/25 21:33:31;;;;;;;4.20;3.80;;;;;;;13.55;63.82;98541.17;218046;1257;140189;-68
2023/07/25 21:38:35;;;;;;;9.10;4.00;;;;;;;13.48;64.18;98548.90;220681;1254;140202;-69
2023/07/25 21:43:41;;;;;;;4.40;3.50;;;;;;;13.33;64.45;98546.38;219476;1254;139547;-69
2023/07/25 21:48:46;;;;;;;5.80;4.30;;;;;;;13.24;64.78;98544.20;220599;1254;140828;-66
2023/07/25 21:53:51;;;;;;;3.40;2.80;;;;;;;13.23;65.08;98548.33;219292;1256;140585;-69
2023/07/25 21:58:56;;;;;;;4.50;4.00;;;;;;;13.12;65.15;98543.86;220293;1254;140025;-70
2023/07/25 22:04:01;;;;;;;4.30;3.60;;;;;;;13.08;65.82;98547.89;219293;1256;140420;-69
2023/07/25 22:09:06;;;;;;;3.00;2.80;;;;;;;13.04;65.61;98547.86;219443;1254;139888;-70
2023/07/25 22:14:11;;;;;;;4.20;3.80;;;;;;;12.87;65.80;98551.36;219250;1255;139542;-69
2023/07/25 22:19:17;;;;;;;5.10;3.80;;;;;;;12.75;66.14;98554.06;218981;1256;139966;-70
2023/07/25 22:24:23;;;;;;;5.60;4.50;;;;;;;12.68;66.62;98557.73;218020;1256;139980;-68
2023/07/25 22:29:27;;;;;;;3.70;3.30;;;;;;;12.57;67.02;98564.10;219001;1255;139924;-69
2023/07/25 22:34:32;;;;;;;4.30;4.00;;;;;;;12.45;67.17;98564.13;218586;1256;140079;-69
2023/07/25 22:39:37;;;;;;;4.20;3.80;;;;;;;12.39;68.06;98560.31;218011;1256;141178;-68
2023/07/25 22:44:41;;;;;;;4.50;4.10;;;;;;;12.44;68.33;98563.08;218804;1256;140292;-68
2023/07/25 22:49:52;;;;;;;5.00;4.50;;;;;;;12.41;68.28;98563.50;218669;1257;139877;-70
2023/07/25 22:54:56;;;;;;;4.80;4.40;;;;;;;12.36;68.53;98570.90;218514;1256;141075;-67
2023/07/25 23:00:02;;;;;;;7.40;4.70;;;;;;;12.37;68.67;98561.39;218739;1256;140871;-68
2023/07/25 23:05:07;;;;;;;6.10;4.20;;;;;;;12.39;69.03;98560.85;218964;1256;139713;-68
2023/07/25 23:10:12;;;;;;;5.30;3.70;;;;;;;12.38;69.05;98561.77;219252;1254;140287;-67
2023/07/25 23:15:17;;;;;;;5.70;4.20;;;;;;;12.29;69.23;98554.46;218635;1255;140094;-69
2023/07/25 23:20:21;;;;;;;7.10;4.50;;;;;;;12.24;69.43;98555.45;218793;1254;140601;-67
2023/07/25 23:25:26;;;;;;;6.50;4.30;;;;;;;12.25;69.67;98555.40;218646;1254;139645;-67